Terminal Aerodrome Forecast
Issued by NWS Mt. Holly, NJ

Home | Current Version | Previous Version | Text Only | Print | Product List | Glossary On
Versions: 1 2 3 4 5 6 7 8 9 10 11 12 13
000
FTUS41 KPHI 312300
TAFTTN
TAF
KTTN 312320Z 0100/0124 21004KT P6SM FEW070 BKN300
     FM010600 VRB02KT P6SM BKN070
     FM011300 22006KT P6SM SCT045 BKN150=

USA.gov is the U.S. government's official web portal to all federal, state and local government web resources and services.